Portada
METAR-TAF:

METAR-TAF

Aeroports :

Bhavnagar, Índia

latitud: 21-45-08N, longitud: 72-11-07E, altitud: 6 m

METAR: manca

Hora: 03:44 (22:14 UTC)

Pronòstic

L'informe es va fer fa 14 hores i 14 minuts, a les 08:00 UTC
Pronòstic vàlid del 25 a les 09 UTC al 25 a les 18 UTC
Vent 6 kt del Est/Nord-Est
Visibilitat: 6000 m
Evolucionant progressivament
l' 25 a les 10 UTC al 25 a les 12 UTC
Vent 13 kt del Sud amb ràfegues de 23 kt
Evolucionant progressivament
l' 25 a les 16 UTC al 25 a les 18 UTC
Vent 8 kt del Oest

TAF: VABV 250800Z 2509/2518 07006KT 6000 NSC BECMG 2510/2512 18013G23KT BECMG 2516/2518 28008KT

Observacions i pronòstics meteorològics de més de 4000 aeroports (METAR i TAF).

Les estacions disponibles són els punts grocs i vermells al mapa.

Posi el ratolí al punt desitjat per veure el nom de l'estació.

Feu clic per veure les observacions i els pronòstics meteorològics.

Per canviar el mapa: feu clic els botons verds amb una creu de color negre per apropar; al botó verd amb un guió per allunyar la imatge; o en les fletxes verdes per a mapes adjacents.


METAR-TAF: